首页
METAR-TAF:

METAR-TAF

机场 :

迪拜国际机场

杜拜, 阿拉伯联合酋长国

纬度: 25-15-10N, 经度: 055-21-52E, 海拔: 8米

当前天气观测

该预报发布于50分钟前的08:00 UTC
风速5节,风向南转南东,在西之间变化
温度 23°C
湿度 38%
气压 1019 hPa
能见度10公里或以上
1500米以下无云,无积雨云

METAR: OMDB 180800Z 16005KT 090V260 CAVOK 23/08 Q1019 NOSIG

时间: 12:50 (08:50 UTC)

预报

该预报发布于3小时和50分钟前的05:00 UTC
预报有效从18日的 06点(UTC)到 19日的 12点(UTC)
风速7节,风向
能见度10公里或以上
1500米以下无云,无积雨云
成为
从 18日的 11点(UTC)到 18日的 13点(UTC)
风速10节,风向
成为
从 18日的 18点(UTC)到 18日的 20点(UTC)
风速5节,风向东南
成为
从 19日的 08点(UTC)到 19日的 10点(UTC)
风速10节,风向北转西北

TAF: OMDB 180500Z 1806/1912 10007KT CAVOK BECMG 1811/1813 35010KT BECMG 1818/1820 14005KT BECMG 1908/1910 33010KT

超过4000个机场的气象观测和天气预报(METAR&TAF报告)。

可查询的气象台以黄色和红色小点在地图上表示。

将鼠标移到小点上方,可查看气象台名称。

然后点击查看天气观测和预报。

如需切换地图:点击带黑十字的绿色按钮放大地图;点击带横线的绿色按钮缩小地图;或者点击绿色箭头查看邻近地区的地图。


METAR-TAF: